Time;durP1;ratioP1;P1;durP2;ratioP2;P2;SDS_P1;SDS_P2;PMS_P1;PMS_P2;Temp;Humidity;BMP_temperature;BMP_pressure;BME280_temperature;BME280_humidity;BME280_pressure;Samples;Min_cycle;Max_cycle;Signal;HPM_P1;HPM_P2
2023/05/26 00:00:15;;;;;;;;;;;;;;;;;;5038472;28;19913;-22
2023/05/26 00:02:42;;;;;;;;;;;;;;;;;;5038106;28;19928;-28
2023/05/26 00:05:08;;;;;;;;;;;;;;;;;;5039264;28;20162;-25
2023/05/26 00:07:34;;;;;;;;;;;;;;;;;;5038366;28;19940;-23
2023/05/26 00:10:00;;;;;;;;;;;;;;;;;;5038631;28;20396;-27
2023/05/26 00:12:26;;;;;;;;;;;;;;;;;;5038248;28;19955;-24
2023/05/26 00:14:52;;;;;;;;;;;;;;;;;;5038203;28;19905;-26
2023/05/26 00:17:18;;;;;;;;;;;;;;;;;;5038191;28;19917;-25
2023/05/26 00:19:44;;;;;;;;;;;;;;;;;;5038106;28;19925;-24
2023/05/26 00:22:11;;;;;;;;;;;;;;;;;;5037974;28;19913;-28
2023/05/26 00:24:37;;;;;;;;;;;;;;;;;;5037395;28;19909;-24
2023/05/26 00:27:03;;;;;;;;;;;;;;;;;;5038256;28;20055;-26
2023/05/26 00:29:30;;;;;;;;;;;;;;;;;;5037930;28;19920;-23
2023/05/26 00:31:56;;;;;;;;;;;;;;;;;;5038136;28;19919;-21
2023/05/26 00:34:22;;;;;;;;;;;;;;;;;;5037931;28;20302;-24
2023/05/26 00:36:48;;;;;;;;;;;;;;;;;;5037846;28;19974;-23
2023/05/26 00:39:14;;;;;;;;;;;;;;;;;;5038342;28;20252;-26
2023/05/26 00:41:40;;;;;;;;;;;;;;;;;;5037959;28;19909;-21
2023/05/26 00:44:06;;;;;;;;;;;;;;;;;;5037684;28;20356;-31
2023/05/26 00:46:32;;;;;;;;;;;;;;;;;;5037734;28;19909;-25
2023/05/26 00:48:58;;;;;;;;;;;;;;;;;;5037641;28;20290;-22
2023/05/26 00:51:24;;;;;;;;;;;;;;;;;;5036479;28;19915;-22
2023/05/26 00:53:50;;;;;;;;;;;;;;;;;;5037486;28;20344;-26
2023/05/26 00:56:16;;;;;;;;;;;;;;;;;;5036508;28;19935;-22
2023/05/26 00:58:41;;;;;;;;;;;;;;;;;;5037401;28;19910;-28
2023/05/26 01:01:07;;;;;;;;;;;;;;;;;;5037417;28;19970;-25
2023/05/26 01:03:35;;;;;;;;;;;;;;;;;;5037067;28;19925;-29
2023/05/26 01:06:00;;;;;;;;;;;;;;;;;;5037364;28;19975;-28
2023/05/26 01:08:26;;;;;;;;;;;;;;;;;;5037320;28;19909;-26
2023/05/26 01:10:52;;;;;;;;;;;;;;;;;;5037229;28;19913;-28
2023/05/26 01:13:18;;;;;;;;;;;;;;;;;;5037117;28;19909;-25
2023/05/26 01:15:44;;;;;;;;;;;;;;;;;;5037123;28;20268;-23
2023/05/26 01:18:11;;;;;;;;;;;;;;;;;;5037356;28;20197;-28
2023/05/26 01:20:38;;;;;;;;;;;;;;;;;;5037046;28;19913;-21
2023/05/26 01:23:04;;;;;;;;;;;;;;;;;;5036862;28;19920;-24
2023/05/26 01:25:30;;;;;;;;;;;;;;;;;;5037020;28;19996;-28
2023/05/26 01:27:56;;;;;;;;;;;;;;;;;;5036955;28;19952;-25
2023/05/26 01:30:22;;;;;;;;;;;;;;;;;;5036871;28;20259;-26
2023/05/26 01:32:48;;;;;;;;;;;;;;;;;;5036750;28;20336;-32
2023/05/26 01:35:14;;;;;;;;;;;;;;;;;;5036859;28;20058;-28
2023/05/26 01:37:41;;;;;;;;;;;;;;;;;;5036743;28;19916;-23
2023/05/26 01:40:08;;;;;;;;;;;;;;;;;;5036705;28;19909;-25
2023/05/26 01:42:34;;;;;;;;;;;;;;;;;;5036483;28;19940;-28
2023/05/26 01:45:00;;;;;;;;;;;;;;;;;;5036613;28;19909;-25
2023/05/26 01:47:26;;;;;;;;;;;;;;;;;;5036543;28;19920;-27
2023/05/26 01:49:52;;;;;;;;;;;;;;;;;;5036707;28;19947;-24
2023/05/26 01:52:18;;;;;;;;;;;;;;;;;;5036345;28;19910;-28
2023/05/26 01:54:44;;;;;;;;;;;;;;;;;;5036421;28;19909;-29
2023/05/26 01:57:10;;;;;;;;;;;;;;;;;;5036608;28;19917;-28
2023/05/26 01:59:36;;;;;;;;;;;;;;;;;;5036317;28;19909;-27
2023/05/26 02:02:02;;;;;;;;;;;;;;;;;;5036237;28;19917;-26
2023/05/26 02:04:28;;;;;;;;;;;;;;;;;;5036073;28;20260;-28
2023/05/26 02:06:55;;;;;;;;;;;;;;;;;;5036226;28;19948;-30
2023/05/26 02:09:21;;;;;;;;;;;;;;;;;;5036384;28;19909;-25
2023/05/26 02:11:47;;;;;;;;;;;;;;;;;;5036296;28;19909;-26
2023/05/26 02:14:13;;;;;;;;;;;;;;;;;;5036028;28;20359;-21
2023/05/26 02:16:39;;;;;;;;;;;;;;;;;;5036011;28;19940;-25
2023/05/26 02:19:07;;;;;;;;;;;;;;;;;;5035965;28;19917;-26
2023/05/26 02:21:33;;;;;;;;;;;;;;;;;;5035815;28;20367;-24
2023/05/26 02:23:59;;;;;;;;;;;;;;;;;;5035847;28;19960;-27
2023/05/26 02:26:26;;;;;;;;;;;;;;;;;;5035840;28;19913;-28
2023/05/26 02:28:52;;;;;;;;;;;;;;;;;;5035749;28;20008;-26
2023/05/26 02:31:18;;;;;;;;;;;;;;;;;;5035762;28;19910;-28
2023/05/26 02:33:44;;;;;;;;;;;;;;;;;;5035538;28;19909;-22
2023/05/26 02:36:11;;;;;;;;;;;;;;;;;;5035716;28;19923;-26
2023/05/26 02:38:37;;;;;;;;;;;;;;;;;;5035886;28;20316;-28
2023/05/26 02:41:03;;;;;;;;;;;;;;;;;;5035771;28;19909;-26
2023/05/26 02:43:29;;;;;;;;;;;;;;;;;;5035407;28;19912;-29
2023/05/26 02:45:55;;;;;;;;;;;;;;;;;;5035718;28;20256;-26
2023/05/26 02:48:21;;;;;;;;;;;;;;;;;;5035639;28;20236;-29
2023/05/26 02:50:47;;;;;;;;;;;;;;;;;;5035629;28;20273;-23
2023/05/26 02:53:15;;;;;;;;;;;;;;;;;;5035018;28;19909;-25
2023/05/26 02:55:41;;;;;;;;;;;;;;;;;;5035343;28;19976;-27
2023/05/26 02:58:07;;;;;;;;;;;;;;;;;;5035505;28;19909;-24
2023/05/26 03:00:32;;;;;;;;;;;;;;;;;;5035223;28;19909;-23
2023/05/26 03:03:00;;;;;;;;;;;;;;;;;;5035020;28;19996;-24
2023/05/26 03:05:26;;;;;;;;;;;;;;;;;;5035207;28;19909;-25
2023/05/26 03:07:51;;;;;;;;;;;;;;;;;;5035369;28;19909;-22
2023/05/26 03:10:17;;;;;;;;;;;;;;;;;;5035046;28;19976;-22
2023/05/26 03:12:43;;;;;;;;;;;;;;;;;;5034948;28;19909;-26
2023/05/26 03:15:11;;;;;;;;;;;;;;;;;;5034464;28;19909;-22
2023/05/26 03:17:37;;;;;;;;;;;;;;;;;;5034998;28;19909;-22
2023/05/26 03:20:04;;;;;;;;;;;;;;;;;;5034885;28;20396;-21
2023/05/26 03:22:30;;;;;;;;;;;;;;;;;;5034649;28;19920;-24
2023/05/26 03:24:56;;;;;;;;;;;;;;;;;;5034840;28;19913;-28
2023/05/26 03:27:23;;;;;;;;;;;;;;;;;;5034823;28;19932;-27
2023/05/26 03:29:49;;;;;;;;;;;;;;;;;;5033877;28;19921;-23
2023/05/26 03:32:15;;;;;;;;;;;;;;;;;;5034744;28;19909;-26
2023/05/26 03:34:41;;;;;;;;;;;;;;;;;;5035038;28;19909;-23
2023/05/26 03:37:07;;;;;;;;;;;;;;;;;;5034704;28;19920;-27
2023/05/26 03:39:33;;;;;;;;;;;;;;;;;;5034612;28;19908;-23
2023/05/26 03:41:59;;;;;;;;;;;;;;;;;;5034711;28;20355;-26
2023/05/26 03:44:25;;;;;;;;;;;;;;;;;;5034490;28;20376;-26
2023/05/26 03:46:51;;;;;;;;;;;;;;;;;;5034765;28;19948;-22
2023/05/26 03:49:17;;;;;;;;;;;;;;;;;;5034569;28;19909;-27
2023/05/26 03:51:43;;;;;;;;;;;;;;;;;;5034484;28;19912;-24
2023/05/26 03:54:09;;;;;;;;;;;;;;;;;;5034354;28;19909;-27
2023/05/26 03:56:35;;;;;;;;;;;;;;;;;;5034229;28;19967;-26
2023/05/26 03:59:02;;;;;;;;;;;;;;;;;;5034296;28;19917;-24
2023/05/26 04:01:28;;;;;;;;;;;;;;;;;;5034300;28;19962;-24
2023/05/26 04:03:54;;;;;;;;;;;;;;;;;;5033994;28;20016;-22
2023/05/26 04:06:20;;;;;;;;;;;;;;;;;;5034146;28;19909;-22
2023/05/26 04:08:49;;;;;;;;;;;;;;;;;;5034426;28;19909;-25
2023/05/26 04:11:14;;;;;;;;;;;;;;;;;;5032799;28;19917;-22
2023/05/26 04:13:40;;;;;;;;;;;;;;;;;;5033606;28;19931;-23
2023/05/26 04:16:07;;;;;;;;;;;;;;;;;;5033600;28;19909;-24
2023/05/26 04:18:32;;;;;;;;;;;;;;;;;;5033851;28;19920;-26
2023/05/26 04:20:58;;;;;;;;;;;;;;;;;;5033808;28;19910;-27
2023/05/26 04:23:24;;;;;;;;;;;;;;;;;;5033568;28;20340;-22
2023/05/26 04:25:50;;;;;;;;;;;;;;;;;;5035831;28;20332;-25
2023/05/26 04:28:16;;;;;;;;;;;;;;;;;;5038007;28;19909;-27
2023/05/26 04:30:42;;;;;;;;;;;;;;;;;;5037496;28;20251;-28
2023/05/26 04:33:09;;;;;;;;;;;;;;;;;;5037547;28;20350;-23
2023/05/26 04:35:35;;;;;;;;;;;;;;;;;;5037373;28;19924;-23
2023/05/26 04:38:04;;;;;;;;;;;;;;;;;;5037424;28;19909;-27
2023/05/26 04:40:32;;;;;;;;;;;;;;;;;;5037445;28;19909;-26
2023/05/26 04:42:58;;;;;;;;;;;;;;;;;;5036950;28;19933;-28
2023/05/26 04:45:23;;;;;;;;;;;;;;;;;;5037279;28;19909;-23
2023/05/26 04:47:49;;;;;;;;;;;;;;;;;;5037226;28;20271;-28
2023/05/26 04:50:16;;;;;;;;;;;;;;;;;;5037018;28;19921;-21
2023/05/26 04:52:42;;;;;;;;;;;;;;;;;;5036710;28;19944;-25
2023/05/26 04:55:08;;;;;;;;;;;;;;;;;;5036899;28;19917;-26
2023/05/26 04:57:34;;;;;;;;;;;;;;;;;;5036643;28;20312;-27
2023/05/26 05:00:00;;;;;;;;;;;;;;;;;;5036638;28;19909;-26
2023/05/26 05:02:26;;;;;;;;;;;;;;;;;;5038134;28;20240;-25
2023/05/26 05:04:52;;;;;;;;;;;;;;;;;;5038397;28;19917;-23
2023/05/26 05:07:18;;;;;;;;;;;;;;;;;;5036587;28;20312;-26
2023/05/26 05:09:44;;;;;;;;;;;;;;;;;;5036246;28;20019;-26
2023/05/26 05:12:10;;;;;;;;;;;;;;;;;;5036482;28;19909;-26
2023/05/26 05:14:36;;;;;;;;;;;;;;;;;;5036766;28;19974;-25
2023/05/26 05:17:02;;;;;;;;;;;;;;;;;;5035436;28;19909;-23
2023/05/26 05:19:28;;;;;;;;;;;;;;;;;;5036458;28;20336;-30
2023/05/26 05:21:54;;;;;;;;;;;;;;;;;;5036526;28;19913;-28
2023/05/26 05:24:20;;;;;;;;;;;;;;;;;;5036181;28;19947;-26
2023/05/26 05:26:46;;;;;;;;;;;;;;;;;;5036005;28;19941;-24
2023/05/26 05:29:12;;;;;;;;;;;;;;;;;;5036076;28;19967;-22
2023/05/26 05:31:38;;;;;;;;;;;;;;;;;;5036415;28;19992;-23
2023/05/26 05:34:04;;;;;;;;;;;;;;;;;;5036065;28;19928;-24
2023/05/26 05:36:31;;;;;;;;;;;;;;;;;;5035640;28;20388;-22
2023/05/26 05:38:57;;;;;;;;;;;;;;;;;;5036002;28;19991;-25
2023/05/26 05:41:23;;;;;;;;;;;;;;;;;;5035808;28;19995;-26
2023/05/26 05:43:49;;;;;;;;;;;;;;;;;;5034510;28;20280;-23
2023/05/26 05:46:15;;;;;;;;;;;;;;;;;;5035839;28;19913;-23
2023/05/26 05:48:42;;;;;;;;;;;;;;;;;;5035670;28;19909;-27
2023/05/26 05:51:08;;;;;;;;;;;;;;;;;;5035776;28;19929;-25
2023/05/26 05:53:34;;;;;;;;;;;;;;;;;;5035737;28;19909;-27
2023/05/26 05:56:00;;;;;;;;;;;;;;;;;;5035954;28;20275;-22
2023/05/26 05:58:26;;;;;;;;;;;;;;;;;;5035890;28;19909;-26
2023/05/26 06:00:52;;;;;;;;;;;;;;;;;;5035699;28;19909;-30
2023/05/26 06:03:18;;;;;;;;;;;;;;;;;;5034966;28;20036;-30
2023/05/26 06:05:44;;;;;;;;;;;;;;;;;;5035439;28;19905;-26
2023/05/26 06:08:11;;;;;;;;;;;;;;;;;;5035478;28;20027;-26
2023/05/26 06:10:37;;;;;;;;;;;;;;;;;;5035664;28;19912;-26
2023/05/26 06:13:03;;;;;;;;;;;;;;;;;;5034447;28;19909;-29
2023/05/26 06:15:29;;;;;;;;;;;;;;;;;;5034616;28;19909;-25
2023/05/26 06:17:55;;;;;;;;;;;;;;;;;;5034270;28;20315;-23
2023/05/26 06:20:21;;;;;;;;;;;;;;;;;;5034373;28;20386;-26
2023/05/26 06:22:47;;;;;;;;;;;;;;;;;;5034132;28;20008;-23
2023/05/26 06:25:13;;;;;;;;;;;;;;;;;;5034372;28;19970;-25
2023/05/26 06:27:39;;;;;;;;;;;;;;;;;;5034131;28;19928;-28
2023/05/26 06:30:05;;;;;;;;;;;;;;;;;;5034124;28;20098;-26
2023/05/26 06:32:31;;;;;;;;;;;;;;;;;;5033847;28;20006;-25
2023/05/26 06:34:57;;;;;;;;;;;;;;;;;;5034272;28;19913;-23
2023/05/26 06:37:23;;;;;;;;;;;;;;;;;;5034244;28;19916;-27
2023/05/26 06:39:48;;;;;;;;;;;;;;;;;;5033253;28;19910;-23
2023/05/26 06:42:14;;;;;;;;;;;;;;;;;;5034607;28;20454;-27
2023/05/26 06:44:40;;;;;;;;;;;;;;;;;;5034869;28;19963;-22
2023/05/26 06:47:06;;;;;;;;;;;;;;;;;;5034954;28;19963;-29
2023/05/26 06:49:32;;;;;;;;;;;;;;;;;;5034076;28;19935;-24
2023/05/26 06:51:59;;;;;;;;;;;;;;;;;;5034492;28;19916;-23
2023/05/26 06:54:25;;;;;;;;;;;;;;;;;;5034386;28;19928;-25
2023/05/26 06:56:51;;;;;;;;;;;;;;;;;;5034791;28;19909;-26
2023/05/26 06:59:17;;;;;;;;;;;;;;;;;;5034496;28;19916;-29
2023/05/26 07:01:43;;;;;;;;;;;;;;;;;;5034478;28;20004;-25
2023/05/26 07:04:09;;;;;;;;;;;;;;;;;;5034039;28;19922;-25
2023/05/26 07:06:35;;;;;;;;;;;;;;;;;;5034319;28;19920;-25
2023/05/26 07:09:01;;;;;;;;;;;;;;;;;;5034153;28;20004;-25
2023/05/26 07:11:27;;;;;;;;;;;;;;;;;;5034467;28;20328;-28
2023/05/26 07:13:53;;;;;;;;;;;;;;;;;;5034072;28;20011;-22
2023/05/26 07:16:19;;;;;;;;;;;;;;;;;;5034225;28;20000;-25
2023/05/26 07:18:45;;;;;;;;;;;;;;;;;;5034406;28;19909;-28
2023/05/26 07:21:11;;;;;;;;;;;;;;;;;;5034675;28;20062;-23
2023/05/26 07:23:37;;;;;;;;;;;;;;;;;;5034665;28;20012;-25
2023/05/26 07:26:03;;;;;;;;;;;;;;;;;;5034519;28;20400;-23
2023/05/26 07:28:28;;;;;;;;;;;;;;;;;;5034445;28;20244;-25
2023/05/26 07:30:55;;;;;;;;;;;;;;;;;;5034469;28;20435;-27
2023/05/26 07:33:21;;;;;;;;;;;;;;;;;;5034187;28;19939;-29
2023/05/26 07:35:46;;;;;;;;;;;;;;;;;;5034152;28;19909;-27
2023/05/26 07:38:12;;;;;;;;;;;;;;;;;;5034354;28;19977;-23
2023/05/26 07:40:39;;;;;;;;;;;;;;;;;;5034392;28;20403;-26
2023/05/26 07:43:05;;;;;;;;;;;;;;;;;;5034225;28;19960;-26
2023/05/26 07:45:31;;;;;;;;;;;;;;;;;;5034241;28;19994;-27
2023/05/26 07:47:57;;;;;;;;;;;;;;;;;;5034170;28;19916;-25
2023/05/26 07:50:23;;;;;;;;;;;;;;;;;;5034176;28;19909;-27
2023/05/26 07:52:49;;;;;;;;;;;;;;;;;;5033999;28;20039;-25
2023/05/26 07:55:15;;;;;;;;;;;;;;;;;;5034417;28;20360;-27
2023/05/26 07:57:41;;;;;;;;;;;;;;;;;;5033995;28;20016;-24
2023/05/26 08:00:07;;;;;;;;;;;;;;;;;;5035159;28;19909;-22
2023/05/26 08:02:33;;;;;;;;;;;;;;;;;;5038438;28;19920;-24
2023/05/26 08:04:59;;;;;;;;;;;;;;;;;;5037946;28;20336;-24
2023/05/26 08:07:25;;;;;;;;;;;;;;;;;;5038374;28;20259;-26
2023/05/26 08:09:52;;;;;;;;;;;;;;;;;;5037563;28;19923;-24
2023/05/26 08:12:18;;;;;;;;;;;;;;;;;;5037772;28;19937;-24
2023/05/26 08:14:44;;;;;;;;;;;;;;;;;;5037772;28;19909;-24
2023/05/26 08:17:10;;;;;;;;;;;;;;;;;;5037745;28;20252;-24
2023/05/26 08:19:35;;;;;;;;;;;;;;;;;;5037934;28;20248;-23
2023/05/26 08:22:01;;;;;;;;;;;;;;;;;;5038276;28;19923;-23
2023/05/26 08:24:27;;;;;;;;;;;;;;;;;;5037859;28;20363;-26
2023/05/26 08:26:53;;;;;;;;;;;;;;;;;;5037648;28;19906;-27
2023/05/26 08:29:20;;;;;;;;;;;;;;;;;;5037633;28;19909;-21
2023/05/26 08:31:46;;;;;;;;;;;;;;;;;;5037595;28;19913;-23
2023/05/26 08:34:12;;;;;;;;;;;;;;;;;;5037361;28;20009;-24
2023/05/26 08:36:37;;;;;;;;;;;;;;;;;;5037601;28;20323;-25
2023/05/26 08:39:04;;;;;;;;;;;;;;;;;;5037744;28;19979;-23
2023/05/26 08:41:30;;;;;;;;;;;;;;;;;;5037310;28;19967;-26
2023/05/26 08:43:56;;;;;;;;;;;;;;;;;;5037182;28;20248;-24
2023/05/26 08:46:22;;;;;;;;;;;;;;;;;;5036519;28;19916;-26
2023/05/26 08:48:48;;;;;;;;;;;;;;;;;;5036098;28;19909;-25
2023/05/26 08:51:14;;;;;;;;;;;;;;;;;;5036216;28;20336;-25
2023/05/26 08:53:40;;;;;;;;;;;;;;;;;;5036065;28;19998;-30
2023/05/26 08:56:06;;;;;;;;;;;;;;;;;;5036163;28;19925;-28
2023/05/26 08:58:33;;;;;;;;;;;;;;;;;;5035997;28;19908;-26
2023/05/26 09:00:59;;;;;;;;;;;;;;;;;;5036301;28;19971;-27
2023/05/26 09:03:25;;;;;;;;;;;;;;;;;;5035567;28;20299;-25
2023/05/26 09:05:51;;;;;;;;;;;;;;;;;;5035946;28;19958;-23
2023/05/26 09:08:17;;;;;;;;;;;;;;;;;;5036023;28;19921;-29
2023/05/26 09:10:43;;;;;;;;;;;;;;;;;;5035822;28;19905;-28
2023/05/26 09:13:09;;;;;;;;;;;;;;;;;;5034856;28;19921;-26
2023/05/26 09:15:35;;;;;;;;;;;;;;;;;;5034751;28;20351;-23
2023/05/26 09:18:01;;;;;;;;;;;;;;;;;;5035773;28;20011;-29
2023/05/26 09:20:27;;;;;;;;;;;;;;;;;;5035821;28;19937;-28
2023/05/26 09:22:53;;;;;;;;;;;;;;;;;;5035465;28;19956;-31
2023/05/26 09:25:19;;;;;;;;;;;;;;;;;;5036029;28;20250;-28
2023/05/26 09:27:45;;;;;;;;;;;;;;;;;;5036134;28;20259;-29
2023/05/26 09:30:11;;;;;;;;;;;;;;;;;;5036411;28;19909;-21
2023/05/26 09:32:38;;;;;;;;;;;;;;;;;;5036192;28;19909;-27
2023/05/26 09:35:04;;;;;;;;;;;;;;;;;;5036227;28;19979;-26
2023/05/26 09:37:30;;;;;;;;;;;;;;;;;;5036660;28;19909;-23
2023/05/26 09:39:56;;;;;;;;;;;;;;;;;;5035862;28;20241;-31
2023/05/26 09:42:22;;;;;;;;;;;;;;;;;;5035719;28;19956;-23
2023/05/26 09:44:48;;;;;;;;;;;;;;;;;;5035576;28;20348;-26
2023/05/26 09:47:14;;;;;;;;;;;;;;;;;;5035613;28;19917;-25
2023/05/26 09:49:40;;;;;;;;;;;;;;;;;;5035935;28;19917;-29
2023/05/26 09:52:06;;;;;;;;;;;;;;;;;;5035543;28;19913;-22
2023/05/26 09:54:32;;;;;;;;;;;;;;;;;;5034662;28;19909;-24
2023/05/26 09:56:58;;;;;;;;;;;;;;;;;;5035875;28;19936;-23
2023/05/26 09:59:26;;;;;;;;;;;;;;;;;;5035499;28;19987;-26
2023/05/26 10:01:52;;;;;;;;;;;;;;;;;;5035278;28;19945;-22
2023/05/26 10:04:18;;;;;;;;;;;;;;;;;;5035381;28;19956;-23
2023/05/26 10:06:44;;;;;;;;;;;;;;;;;;5036358;28;19910;-19
2023/05/26 10:09:11;;;;;;;;;;;;;;;;;;5035421;28;19951;-22
2023/05/26 10:11:36;;;;;;;;;;;;;;;;;;5035228;28;19917;-28
2023/05/26 10:14:02;;;;;;;;;;;;;;;;;;5035474;28;19909;-29
2023/05/26 10:16:28;;;;;;;;;;;;;;;;;;5035637;28;19916;-27
2023/05/26 10:18:54;;;;;;;;;;;;;;;;;;5035643;28;20251;-23
2023/05/26 10:21:20;;;;;;;;;;;;;;;;;;5035531;28;20424;-22
2023/05/26 10:23:46;;;;;;;;;;;;;;;;;;5035087;28;20340;-30
2023/05/26 10:26:12;;;;;;;;;;;;;;;;;;5035534;28;20391;-27
2023/05/26 10:28:38;;;;;;;;;;;;;;;;;;5035243;28;20056;-24
2023/05/26 10:31:04;;;;;;;;;;;;;;;;;;5035125;28;20315;-24
2023/05/26 10:33:31;;;;;;;;;;;;;;;;;;5035427;28;19909;-27
2023/05/26 10:35:57;;;;;;;;;;;;;;;;;;5034871;28;19924;-23
2023/05/26 10:38:23;;;;;;;;;;;;;;;;;;5034807;28;20182;-26
2023/05/26 10:40:49;;;;;;;;;;;;;;;;;;5035094;28;19913;-25
2023/05/26 10:43:15;;;;;;;;;;;;;;;;;;5033613;28;20280;-25
2023/05/26 10:45:41;;;;;;;;;;;;;;;;;;5034799;28;19917;-23
2023/05/26 10:48:08;;;;;;;;;;;;;;;;;;5034748;28;19932;-27
2023/05/26 10:50:34;;;;;;;;;;;;;;;;;;5035276;28;20012;-23
2023/05/26 10:53:00;;;;;;;;;;;;;;;;;;5034734;28;20345;-25
2023/05/26 10:55:26;;;;;;;;;;;;;;;;;;5034773;28;20296;-29
2023/05/26 10:57:52;;;;;;;;;;;;;;;;;;5034902;28;19916;-25
2023/05/26 11:00:18;;;;;;;;;;;;;;;;;;5034350;28;20292;-32
2023/05/26 11:02:44;;;;;;;;;;;;;;;;;;5032669;28;19921;-22
2023/05/26 11:05:10;;;;;;;;;;;;;;;;;;5034340;28;19955;-27
2023/05/26 11:07:36;;;;;;;;;;;;;;;;;;5033988;28;19909;-24
2023/05/26 11:10:02;;;;;;;;;;;;;;;;;;5033949;28;19909;-30
2023/05/26 11:12:28;;;;;;;;;;;;;;;;;;5033909;28;19915;-23
2023/05/26 11:14:54;;;;;;;;;;;;;;;;;;5033959;28;19909;-28
2023/05/26 11:17:20;;;;;;;;;;;;;;;;;;5033944;28;19990;-27
2023/05/26 11:19:46;;;;;;;;;;;;;;;;;;5033872;28;19952;-23
2023/05/26 11:22:13;;;;;;;;;;;;;;;;;;5033921;28;19920;-25
2023/05/26 11:24:39;;;;;;;;;;;;;;;;;;5034038;28;19910;-26
2023/05/26 11:27:08;;;;;;;;;;;;;;;;;;5034266;28;19974;-26
2023/05/26 11:29:34;;;;;;;;;;;;;;;;;;5034161;28;19930;-22
2023/05/26 11:32:00;;;;;;;;;;;;;;;;;;5034189;28;19917;-26
2023/05/26 11:34:25;;;;;;;;;;;;;;;;;;5033829;28;20331;-26
2023/05/26 11:36:53;;;;;;;;;;;;;;;;;;5034226;28;20408;-29
2023/05/26 11:39:20;;;;;;;;;;;;;;;;;;5034128;28;19909;-25
2023/05/26 11:41:46;;;;;;;;;;;;;;;;;;5034339;28;20012;-26
2023/05/26 11:44:15;;;;;;;;;;;;;;;;;;5034090;28;20373;-29
2023/05/26 11:46:41;;;;;;;;;;;;;;;;;;5034301;28;19909;-24
2023/05/26 11:49:07;;;;;;;;;;;;;;;;;;5033959;28;19909;-25
2023/05/26 11:51:33;;;;;;;;;;;;;;;;;;5034056;28;20247;-22
2023/05/26 11:53:59;;;;;;;;;;;;;;;;;;5034401;28;20244;-25
2023/05/26 11:56:25;;;;;;;;;;;;;;;;;;5033977;28;20395;-29
2023/05/26 11:58:51;;;;;;;;;;;;;;;;;;5034084;28;19977;-25
2023/05/26 12:01:18;;;;;;;;;;;;;;;;;;5034002;28;19917;-27
2023/05/26 12:03:44;;;;;;;;;;;;;;;;;;5033855;28;19921;-25
2023/05/26 12:06:11;;;;;;;;;;;;;;;;;;5033895;28;19909;-25
2023/05/26 12:08:39;;;;;;;;;;;;;;;;;;5033161;28;20378;-30
2023/05/26 12:11:05;;;;;;;;;;;;;;;;;;5034021;28;19909;-24
2023/05/26 12:13:31;;;;;;;;;;;;;;;;;;5033719;28;19909;-30
2023/05/26 12:15:57;;;;;;;;;;;;;;;;;;5033982;28;19909;-24
2023/05/26 12:18:23;;;;;;;;;;;;;;;;;;5033806;28;19905;-25
2023/05/26 12:20:49;;;;;;;;;;;;;;;;;;5033837;28;19913;-26
2023/05/26 12:23:15;;;;;;;;;;;;;;;;;;5033878;28;19924;-26
2023/05/26 12:25:41;;;;;;;;;;;;;;;;;;5032700;28;20190;-27
2023/05/26 12:28:07;;;;;;;;;;;;;;;;;;5033942;28;19916;-23
2023/05/26 12:30:36;;;;;;;;;;;;;;;;;;5033887;28;19920;-24
2023/05/26 12:33:02;;;;;;;;;;;;;;;;;;5033739;28;19994;-30
2023/05/26 12:35:28;;;;;;;;;;;;;;;;;;5033711;28;20066;-26
2023/05/26 12:37:54;;;;;;;;;;;;;;;;;;5033694;28;20335;-25
2023/05/26 12:40:20;;;;;;;;;;;;;;;;;;5033596;28;20008;-26
2023/05/26 12:42:46;;;;;;;;;;;;;;;;;;5033694;28;19925;-26
2023/05/26 12:45:12;;;;;;;;;;;;;;;;;;5033370;28;19920;-22
2023/05/26 12:47:38;;;;;;;;;;;;;;;;;;5034911;28;19909;-20
2023/05/26 12:50:04;;;;;;;;;;;;;;;;;;5037134;28;19956;-25
2023/05/26 12:52:30;;;;;;;;;;;;;;;;;;5037005;28;20256;-27
2023/05/26 12:54:56;;;;;;;;;;;;;;;;;;5037182;28;19912;-25
2023/05/26 12:57:22;;;;;;;;;;;;;;;;;;5036632;28;20346;-24
2023/05/26 12:59:48;;;;;;;;;;;;;;;;;;5036217;28;19909;-28
2023/05/26 13:02:14;;;;;;;;;;;;;;;;;;5036691;28;19971;-28
2023/05/26 13:04:40;;;;;;;;;;;;;;;;;;5036696;28;20248;-23
2023/05/26 13:07:08;;;;;;;;;;;;;;;;;;5037058;28;19909;-24
2023/05/26 13:09:34;;;;;;;;;;;;;;;;;;5036558;28;19971;-27
2023/05/26 13:12:01;;;;;;;;;;;;;;;;;;5036374;28;20003;-26
2023/05/26 13:14:27;;;;;;;;;;;;;;;;;;5036270;28;19909;-23
2023/05/26 13:16:53;;;;;;;;;;;;;;;;;;5035143;28;19920;-26
2023/05/26 13:19:19;;;;;;;;;;;;;;;;;;5036402;28;20228;-27
2023/05/26 13:21:45;;;;;;;;;;;;;;;;;;5036264;28;19937;-27
2023/05/26 13:24:11;;;;;;;;;;;;;;;;;;5036231;28;19975;-27
2023/05/26 13:26:37;;;;;;;;;;;;;;;;;;5036788;28;20037;-28
2023/05/26 13:29:03;;;;;;;;;;;;;;;;;;5036292;28;19909;-27
2023/05/26 13:31:29;;;;;;;;;;;;;;;;;;5036697;28;19917;-30
2023/05/26 13:33:55;;;;;;;;;;;;;;;;;;5036148;28;19909;-24
2023/05/26 13:36:21;;;;;;;;;;;;;;;;;;5036372;28;19909;-25
2023/05/26 13:38:47;;;;;;;;;;;;;;;;;;5035139;28;19909;-26
2023/05/26 13:41:16;;;;;;;;;;;;;;;;;;5036185;28;20070;-22
2023/05/26 13:43:42;;;;;;;;;;;;;;;;;;5035876;28;19920;-25
2023/05/26 13:46:08;;;;;;;;;;;;;;;;;;5036198;28;19911;-22
2023/05/26 13:48:34;;;;;;;;;;;;;;;;;;5036080;28;19909;-30
2023/05/26 13:51:01;;;;;;;;;;;;;;;;;;5036226;28;19996;-24
2023/05/26 13:53:27;;;;;;;;;;;;;;;;;;5035605;28;20324;-27
2023/05/26 13:55:53;;;;;;;;;;;;;;;;;;5034758;28;19909;-27
2023/05/26 13:58:19;;;;;;;;;;;;;;;;;;5035519;28;19909;-24
2023/05/26 14:00:45;;;;;;;;;;;;;;;;;;5035872;28;19909;-26
2023/05/26 14:03:11;;;;;;;;;;;;;;;;;;5035413;28;20320;-33
2023/05/26 14:05:37;;;;;;;;;;;;;;;;;;5036053;28;19971;-29
2023/05/26 14:08:05;;;;;;;;;;;;;;;;;;5035246;28;19916;-24
2023/05/26 14:10:31;;;;;;;;;;;;;;;;;;5035235;28;20229;-26
2023/05/26 14:12:57;;;;;;;;;;;;;;;;;;5035386;28;19909;-28
2023/05/26 14:15:23;;;;;;;;;;;;;;;;;;5035422;28;19920;-30
2023/05/26 14:17:49;;;;;;;;;;;;;;;;;;5035584;28;19924;-30
2023/05/26 14:20:15;;;;;;;;;;;;;;;;;;5035222;28;20293;-28
2023/05/26 14:22:41;;;;;;;;;;;;;;;;;;5035038;28;19966;-25
2023/05/26 14:25:07;;;;;;;;;;;;;;;;;;5035046;28;19927;-31
2023/05/26 14:27:33;;;;;;;;;;;;;;;;;;5035227;28;20086;-28
2023/05/26 14:29:59;;;;;;;;;;;;;;;;;;5035161;28;19959;-30
2023/05/26 14:32:25;;;;;;;;;;;;;;;;;;5035042;28;20379;-23
2023/05/26 14:34:51;;;;;;;;;;;;;;;;;;5034935;28;19917;-25
2023/05/26 14:37:17;;;;;;;;;;;;;;;;;;5034897;28;19932;-29
2023/05/26 14:39:43;;;;;;;;;;;;;;;;;;5034726;28;19909;-26
2023/05/26 14:42:09;;;;;;;;;;;;;;;;;;5034444;28;19909;-24
2023/05/26 14:44:35;;;;;;;;;;;;;;;;;;5034516;28;19909;-26
2023/05/26 14:47:01;;;;;;;;;;;;;;;;;;5034601;28;19913;-26
2023/05/26 14:49:27;;;;;;;;;;;;;;;;;;5034523;28;20324;-25
2023/05/26 14:51:53;;;;;;;;;;;;;;;;;;5034314;28;19909;-26
2023/05/26 14:54:19;;;;;;;;;;;;;;;;;;5034568;28;19909;-25
2023/05/26 14:56:45;;;;;;;;;;;;;;;;;;5034404;28;19909;-27
2023/05/26 14:59:11;;;;;;;;;;;;;;;;;;5034388;28;19919;-23
2023/05/26 15:01:37;;;;;;;;;;;;;;;;;;5034310;28;20341;-28
2023/05/26 15:04:03;;;;;;;;;;;;;;;;;;5034340;28;19931;-25
2023/05/26 15:06:30;;;;;;;;;;;;;;;;;;5034393;28;19913;-28
2023/05/26 15:08:56;;;;;;;;;;;;;;;;;;5034425;28;20285;-25
2023/05/26 15:11:22;;;;;;;;;;;;;;;;;;5034144;28;19909;-24
2023/05/26 15:13:48;;;;;;;;;;;;;;;;;;5033789;28;19932;-20
2023/05/26 15:16:15;;;;;;;;;;;;;;;;;;5033913;28;20384;-23
2023/05/26 15:18:41;;;;;;;;;;;;;;;;;;5034069;28;19909;-26
2023/05/26 15:21:07;;;;;;;;;;;;;;;;;;5032882;28;20370;-27
2023/05/26 15:23:33;;;;;;;;;;;;;;;;;;5033729;28;19913;-23
2023/05/26 15:25:59;;;;;;;;;;;;;;;;;;5032721;28;19993;-29
2023/05/26 15:28:27;;;;;;;;;;;;;;;;;;5033705;28;20068;-26
2023/05/26 15:30:53;;;;;;;;;;;;;;;;;;5034044;28;20236;-25
2023/05/26 15:33:19;;;;;;;;;;;;;;;;;;5033755;28;20398;-22
2023/05/26 15:35:45;;;;;;;;;;;;;;;;;;5033679;28;19917;-23
2023/05/26 15:38:11;;;;;;;;;;;;;;;;;;5033974;28;20004;-25
2023/05/26 15:40:37;;;;;;;;;;;;;;;;;;5033824;28;19932;-26
2023/05/26 15:43:03;;;;;;;;;;;;;;;;;;5034008;28;19971;-23
2023/05/26 15:45:29;;;;;;;;;;;;;;;;;;5033985;28;19998;-25
2023/05/26 15:47:55;;;;;;;;;;;;;;;;;;5034218;28;19963;-25
2023/05/26 15:50:21;;;;;;;;;;;;;;;;;;5034835;28;19909;-24
2023/05/26 15:52:47;;;;;;;;;;;;;;;;;;5033997;28;19961;-24
2023/05/26 15:55:13;;;;;;;;;;;;;;;;;;5033901;28;19909;-30
2023/05/26 15:57:39;;;;;;;;;;;;;;;;;;5033620;28;19996;-25
2023/05/26 16:00:05;;;;;;;;;;;;;;;;;;5033862;28;20306;-28
2023/05/26 16:02:31;;;;;;;;;;;;;;;;;;5033796;28;19913;-25
2023/05/26 16:04:57;;;;;;;;;;;;;;;;;;5033607;28;20347;-28
2023/05/26 16:07:23;;;;;;;;;;;;;;;;;;5032675;28;20263;-26
2023/05/26 16:09:49;;;;;;;;;;;;;;;;;;5033653;28;20378;-27
2023/05/26 16:12:15;;;;;;;;;;;;;;;;;;5033608;28;19909;-26
2023/05/26 16:14:41;;;;;;;;;;;;;;;;;;5033801;28;19909;-22
2023/05/26 16:17:07;;;;;;;;;;;;;;;;;;5033911;28;20369;-25
2023/05/26 16:19:32;;;;;;;;;;;;;;;;;;5033902;28;20241;-20
2023/05/26 16:21:58;;;;;;;;;;;;;;;;;;5036482;28;20348;-30
2023/05/26 16:24:28;;;;;;;;;;;;;;;;;;5037704;28;20404;-29
2023/05/26 16:26:54;;;;;;;;;;;;;;;;;;5038047;28;19909;-23
2023/05/26 16:29:20;;;;;;;;;;;;;;;;;;5037548;28;19909;-27
2023/05/26 16:31:46;;;;;;;;;;;;;;;;;;5036388;28;20288;-28
2023/05/26 16:34:12;;;;;;;;;;;;;;;;;;5037571;28;20297;-24
2023/05/26 16:36:38;;;;;;;;;;;;;;;;;;5037631;28;19910;-23